This is the latest recevied weather packets stored in our database for station/object DG5TS-10. If no packets are shown the sender has not sent any weather packets the latest 10 day(s).
| Time | Temp. | Humidity | Pressure | Rain* | Wind** | Luminosity | Snow |
|---|---|---|---|---|---|---|---|
| 1778166225 | 16.67° C | 44% | 1017.7 hPa | - | - | - | - |
| 1778165325 | 16.67° C | 44% | 1017.7 hPa | - | - | - | - |
| 1778164425 | 17.22° C | 43% | 1017.7 hPa | - | - | - | - |
| 1778163525 | 17.22° C | 42% | 1017.6 hPa | - | - | - | - |
| 1778162625 | 17.78° C | 42% | 1017.5 hPa | - | - | - | - |
| 1778161725 | 18.33° C | 42% | 1017.5 hPa | - | - | - | - |
| 1778160824 | 18.89° C | 40% | 1017.4 hPa | - | - | - | - |
| 1778159924 | 18.89° C | 40% | 1017.3 hPa | - | - | - | - |
| 1778159024 | 18.89° C | 39% | 1017.2 hPa | - | - | - | - |
| 1778158124 | 20.56° C | 37% | 1016.9 hPa | - | - | - | - |
| 1778157224 | 20° C | 37% | 1016.9 hPa | - | - | - | - |
| 1778156324 | 18.89° C | 40% | 1016.8 hPa | - | - | - | - |
| 1778155424 | 18.89° C | 39% | 1016.8 hPa | - | - | - | - |
| 1778154524 | 18.33° C | 39% | 1016.6 hPa | - | - | - | - |
| 1778153628 | 18.33° C | 39% | 1016.6 hPa | - | - | - | - |
| 1778152574 | 18.89° C | 38% | 1016.5 hPa | - | - | - | - |
| 1778151519 | 18.89° C | 38% | 1016.3 hPa | - | - | - | - |
| 1778150464 | 18.89° C | 38% | 1016.3 hPa | - | - | - | - |
| 1778149408 | 17.78° C | 40% | 1016.2 hPa | - | - | - | - |
| 1778148353 | 17.22° C | 41% | 1016 hPa | - | - | - | - |
| 1778147298 | 17.22° C | 40% | 1015.8 hPa | - | - | - | - |
| 1778146243 | 17.22° C | 40% | 1015.6 hPa | - | - | - | - |
| 1778145188 | 16.67° C | 40% | 1015.4 hPa | - | - | - | - |
| 1778144133 | 15.56° C | 42% | 1015.2 hPa | - | - | - | - |
| 1778143078 | 15° C | 44% | 1015.1 hPa | - | - | - | - |
* Rain since midnight (hover to see other rain measurements)
** Current wind speed in m/s (hover to see current wind gust speed)